Wye River — WDE3583 — position and weather

sailwx.info

Track history (hours):
 
Tides and Currents Weather Stations Pressure Air Temp Water Temp Dewpoint Dewpoint Depression Visibility Wind Speed Wind Dir Waves Ship Positions

Wye River

Owner: Vane Line Bunkering, Inc., Philadelphia, PA. More information available from US FCC via Universal Licensing System and Coast Guard Vessel Documentation Center.

Last reported at 2017-Aug-21 21:30 UTC. Time now 2017-Aug-21 21:53 UTC.
Position N 39°54' W 075°08'.

Length 30 m; draft 4.3 m.

Type: Tow > 200 m length. MMSI: 367341190.

Date/timePositionNaut miles runAvg speedWind from/ knotsBaromVisibWave heightAir tempDewpointWater temp
2017-Aug-21 21:30N 39°54' W 075°08'0 0.4
2017-Aug-21 21:00N 39°54' W 075°08'0 0.0
2017-Aug-21 20:31N 39°54' W 075°08'0 0.0
2017-Aug-21 19:58N 39°54' W 075°08'0 0.0
2017-Aug-21 19:28N 39°54' W 075°08'0 0.9
2017-Aug-21 19:01N 39°54' W 075°08'0 0.5
2017-Aug-21 18:31N 39°54' W 075°08'0 0.4
2017-Aug-21 18:01N 39°54' W 075°08'3 6.1
2017-Aug-21 17:30N 39°54' W 075°12'3 5.0
2017-Aug-21 16:58N 39°53' W 075°09'0 0.0
2017-Aug-21 16:29N 39°53' W 075°09'1 1.8
2017-Aug-21 16:01N 39°53' W 075°10'2 3.1
2017-Aug-21 15:31N 39°54' W 075°12'0 0.7
2017-Aug-21 14:58N 39°54' W 075°12'0 0.0
2017-Aug-21 14:28N 39°54' W 075°12'0 0.0
2017-Aug-21 13:59N 39°54' W 075°12'0 0.0
2017-Aug-21 13:29N 39°54' W 075°12'0 0.0
2017-Aug-21 12:59N 39°54' W 075°12'0 0.0
2017-Aug-21 12:30N 39°54' W 075°12'0 0.0
2017-Aug-21 12:00N 39°54' W 075°12'0 0.0
2017-Aug-21 11:30N 39°54' W 075°12'0 0.0
2017-Aug-21 10:58N 39°54' W 075°12'0 0.0
2017-Aug-21 10:28N 39°54' W 075°12'0 0.0
2017-Aug-21 09:58N 39°54' W 075°12'0 0.0
2017-Aug-21 09:29N 39°54' W 075°12'0 0.0
2017-Aug-21 09:00N 39°54' W 075°12'0 0.0
2017-Aug-21 08:28N 39°54' W 075°12'0 0.0
2017-Aug-21 07:59N 39°54' W 075°12'0 0.0
2017-Aug-21 07:29N 39°54' W 075°12'0 0.0
2017-Aug-21 06:59N 39°54' W 075°12'0 0.0
2017-Aug-21 06:29N 39°54' W 075°12'0 0.0
2017-Aug-21 06:00N 39°54' W 075°12'0 0.0
2017-Aug-21 05:30N 39°54' W 075°12'0 0.0
2017-Aug-21 05:00N 39°54' W 075°12'0 0.0
2017-Aug-21 04:28N 39°54' W 075°12'0 0.0
2017-Aug-21 03:58N 39°54' W 075°12'0 0.0
2017-Aug-21 03:29N 39°54' W 075°12'0 0.0
2017-Aug-21 02:58N 39°54' W 075°12'0 0.0
2017-Aug-21 02:29N 39°54' W 075°12'0 0.0
2017-Aug-21 02:00N 39°54' W 075°12'1 2.5
2017-Aug-21 01:30N 39°53' W 075°11'2 4.3
2017-Aug-21 00:58N 39°54' W 075°08'0 0.0
2017-Aug-21 00:29N 39°54' W 075°08'1 1.2
2017-Aug-20 23:59N 39°54' W 075°08'0 0.2
2017-Aug-20 23:29N 39°54' W 075°08'0 0.0
2017-Aug-20 23:00N 39°54' W 075°08'0 0.0
2017-Aug-20 22:30N 39°54' W 075°08'0 0.0
2017-Aug-20 22:00N 39°54' W 075°08'0 0.0
2017-Aug-20 21:30N 39°54' W 075°08'1 1.4
2017-Aug-20 20:58N 39°54' W 075°08'1 2.9
2017-Aug-20 20:30N 39°55' W 075°08'4 8.2
2017-Aug-20 20:00N 39°59' W 075°05'0 0.7
2017-Aug-20 19:30N 39°59' W 075°05'2 3.8
2017-Aug-20 19:00N 39°58' W 075°07'3 6.1
2017-Aug-20 18:30N 39°55' W 075°08'3 5.8
2017-Aug-20 18:00N 39°53' W 075°10'1 2.1
2017-Aug-20 17:30N 39°54' W 075°12'0 0.1
2017-Aug-20 17:00N 39°53' W 075°12'1 2.4
2017-Aug-20 16:30N 39°53' W 075°10'2 2.9
2017-Aug-20 15:58N 39°54' W 075°09'1 1.9
2017-Aug-20 15:31N 39°54' W 075°08'3 5.9
2017-Aug-20 15:00N 39°57' W 075°08'3 5.5
2017-Aug-20 14:30N 39°59' W 075°05'0 0.0
2017-Aug-20 14:00N 39°59' W 075°05'0 0.0
2017-Aug-20 13:28N 39°59' W 075°05'0 0.0
2017-Aug-20 12:58N 39°59' W 075°05'0 0.7
2017-Aug-20 12:30N 39°59' W 075°05'1 1.1
2017-Aug-20 12:00N 39°58' W 075°06'3 6.1
2017-Aug-20 11:30N 39°56' W 075°08'2 4.8
2017-Aug-20 11:00N 39°54' W 075°08'3 5.6
2017-Aug-20 10:30N 39°53' W 075°12'2 3.7
2017-Aug-20 09:59N 39°55' W 075°13'0 0.1
2017-Aug-20 09:30N 39°55' W 075°13'1 2.0
2017-Aug-20 08:59N 39°54' W 075°12'0 0.0
2017-Aug-20 08:29N 39°54' W 075°12'0 0.0
2017-Aug-20 08:00N 39°54' W 075°12'0 0.0
2017-Aug-20 07:30N 39°54' W 075°12'0 0.0
2017-Aug-20 07:00N 39°54' W 075°12'0 0.0
2017-Aug-20 06:30N 39°54' W 075°12'0 0.0
2017-Aug-20 05:58N 39°54' W 075°12'0 0.0
2017-Aug-20 05:28N 39°54' W 075°12'0 0.0
2017-Aug-20 04:59N 39°54' W 075°12'0 0.0
2017-Aug-20 04:29N 39°54' W 075°12'0 0.0
2017-Aug-20 03:59N 39°54' W 075°12'0 0.0
2017-Aug-20 03:30N 39°54' W 075°12'0 0.0
2017-Aug-20 03:00N 39°54' W 075°12'0 0.0
2017-Aug-20 02:30N 39°54' W 075°12'0 0.0
2017-Aug-20 02:00N 39°54' W 075°12'0 0.0
2017-Aug-20 01:28N 39°54' W 075°12'0 0.0
2017-Aug-20 00:58N 39°54' W 075°12'0 0.0
2017-Aug-20 00:29N 39°54' W 075°12'0 0.0
2017-Aug-19 23:59N 39°54' W 075°12'0 0.0
2017-Aug-19 23:29N 39°54' W 075°12'0 0.0
2017-Aug-19 23:00N 39°54' W 075°12'0 0.0
2017-Aug-19 22:30N 39°54' W 075°12'0 0.0
2017-Aug-19 22:00N 39°54' W 075°12'0 0.0
2017-Aug-19 21:28N 39°54' W 075°12'0 0.0
2017-Aug-19 20:58N 39°54' W 075°12'0 0.0
2017-Aug-19 20:28N 39°54' W 075°12'0 0.0
2017-Aug-19 19:59N 39°54' W 075°12'0 0.0
2017-Aug-19 19:29N 39°54' W 075°12'0 0.0
2017-Aug-19 18:59N 39°54' W 075°12'0 0.0
2017-Aug-19 18:30N 39°54' W 075°12'0 0.0
2017-Aug-19 18:00N 39°54' W 075°12'0 0.0
2017-Aug-19 17:30N 39°54' W 075°12'0 0.0
2017-Aug-19 16:58N 39°54' W 075°12'0 0.0
2017-Aug-19 16:28N 39°54' W 075°12'0 0.0
2017-Aug-19 15:58N 39°54' W 075°12'0 0.0
2017-Aug-19 15:29N 39°54' W 075°12'0 0.0
2017-Aug-19 14:59N 39°54' W 075°12'0 0.0
2017-Aug-19 14:00N 39°54' W 075°12'0 0.0
2017-Aug-19 13:28N 39°54' W 075°12'0 0.0
2017-Aug-19 12:58N 39°54' W 075°12'0 0.0
2017-Aug-19 12:30N 39°54' W 075°12'0 0.0
2017-Aug-19 11:55N 39°54' W 075°12'0 0.0
2017-Aug-19 11:25N 39°54' W 075°12'0 0.0
2017-Aug-19 10:59N 39°54' W 075°12'0 0.0
2017-Aug-19 10:29N 39°54' W 075°12'0 0.0
2017-Aug-19 09:59N 39°54' W 075°12'0 0.0
2017-Aug-19 09:30N 39°54' W 075°12'0 0.0
2017-Aug-19 09:00N 39°54' W 075°12'0 0.0
2017-Aug-19 08:30N 39°54' W 075°12'0 0.0
2017-Aug-19 07:58N 39°54' W 075°12'0 0.0
2017-Aug-19 07:28N 39°54' W 075°12'0 0.0
2017-Aug-19 06:58N 39°54' W 075°12'0 0.0
2017-Aug-19 06:29N 39°54' W 075°12'0 0.0
2017-Aug-19 05:59N 39°54' W 075°12'0 0.0
2017-Aug-19 05:29N 39°54' W 075°12'0 0.0
2017-Aug-19 05:00N 39°54' W 075°12'0 0.0
2017-Aug-19 04:30N 39°54' W 075°12'0 0.0
2017-Aug-19 04:00N 39°54' W 075°12'0 0.0
2017-Aug-19 03:30N 39°54' W 075°12'0 0.0
2017-Aug-19 02:58N 39°54' W 075°12'0 0.0
2017-Aug-19 02:29N 39°54' W 075°12'0 0.0
2017-Aug-19 01:59N 39°54' W 075°12'0 0.0
2017-Aug-19 01:29N 39°54' W 075°12'0 0.0
2017-Aug-19 00:59N 39°54' W 075°12'0 0.0
2017-Aug-19 00:30N 39°54' W 075°12'0 0.0
2017-Aug-19 00:00N 39°54' W 075°12'0 0.0
2017-Aug-18 23:30N 39°54' W 075°12'0 0.0
2017-Aug-18 22:58N 39°54' W 075°12'0 0.0
2017-Aug-18 22:22N 39°54' W 075°12'0 0.0
2017-Aug-18 21:59N 39°54' W 075°12'0 0.0
2017-Aug-18 21:27N 39°54' W 075°12'0 0.0
2017-Aug-18 21:00N 39°54' W 075°12'3 5.7
2017-Aug-18 20:29N 39°53' W 075°09'2 4.9
2017-Aug-18 20:00N 39°53' W 075°12'1 1.2
2017-Aug-18 19:30N 39°54' W 075°12'0 0.0
2017-Aug-18 19:00N 39°54' W 075°12'0 0.0
2017-Aug-18 18:29N 39°54' W 075°12'0 0.0
2017-Aug-18 17:59N 39°54' W 075°12'0 0.0
2017-Aug-18 17:28N 39°54' W 075°12'0 0.0
2017-Aug-18 16:59N 39°54' W 075°12'0 0.0
2017-Aug-18 16:29N 39°54' W 075°12'0 0.0
2017-Aug-18 15:59N 39°54' W 075°12'0 0.0
2017-Aug-18 15:29N 39°54' W 075°12'0 0.0
2017-Aug-18 15:00N 39°54' W 075°12'0 0.0
2017-Aug-18 14:00N 39°54' W 075°12'0 0.0
2017-Aug-18 13:28N 39°54' W 075°12'0 0.0
2017-Aug-18 12:58N 39°54' W 075°12'0 0.0
2017-Aug-18 12:26N 39°54' W 075°12'0 0.0
2017-Aug-18 11:59N 39°54' W 075°12'0 0.0
2017-Aug-18 11:26N 39°54' W 075°12'0 0.0
2017-Aug-18 11:00N 39°54' W 075°12'0 0.0
2017-Aug-18 10:30N 39°54' W 075°12'0 0.0
2017-Aug-18 10:00N 39°54' W 075°12'0 0.0
2017-Aug-18 09:28N 39°54' W 075°12'0 0.0
2017-Aug-18 08:58N 39°54' W 075°12'0 0.0
2017-Aug-18 08:28N 39°54' W 075°12'0 0.0
2017-Aug-18 07:59N 39°54' W 075°12'0 0.0
2017-Aug-18 07:29N 39°54' W 075°12'0 0.0
2017-Aug-18 06:56N 39°54' W 075°12'0 0.0
2017-Aug-18 06:30N 39°54' W 075°12'0 0.0
2017-Aug-18 06:00N 39°54' W 075°12'0 0.0
2017-Aug-18 05:30N 39°54' W 075°12'0 0.0
2017-Aug-18 04:58N 39°54' W 075°12'0 0.0
2017-Aug-18 04:28N 39°54' W 075°12'0 0.0
2017-Aug-18 03:58N 39°54' W 075°12'0 0.0
2017-Aug-18 03:29N 39°54' W 075°12'0 0.0
2017-Aug-18 02:59N 39°54' W 075°12'0 0.0
2017-Aug-18 02:29N 39°54' W 075°12'0 0.0
2017-Aug-18 02:00N 39°54' W 075°12'0 0.0
2017-Aug-18 01:30N 39°54' W 075°12'0 0.0
2017-Aug-18 01:00N 39°54' W 075°12'0 0.0
2017-Aug-18 00:30N 39°54' W 075°12'0 0.0
2017-Aug-17 23:58N 39°54' W 075°12'0 0.0
2017-Aug-17 23:28N 39°54' W 075°12'0 0.0
2017-Aug-17 22:59N 39°54' W 075°12'0 0.0
2017-Aug-17 22:29N 39°54' W 075°12'0 0.0
2017-Aug-17 21:59N 39°54' W 075°12'0 0.0
2017-Aug-17 21:30N 39°54' W 075°12'0 0.0
2017-Aug-17 21:00N 39°54' W 075°12'0 0.0
2017-Aug-17 20:30N 39°54' W 075°12'0 0.0
2017-Aug-17 19:58N 39°54' W 075°12'0 0.0
2017-Aug-17 19:28N 39°54' W 075°12'0 0.0
2017-Aug-17 18:55N 39°54' W 075°12'0 0.0
2017-Aug-17 18:29N 39°54' W 075°12'0 0.0
2017-Aug-17 17:56N 39°54' W 075°12'0 0.0
2017-Aug-17 17:29N 39°54' W 075°12'0 0.0
2017-Aug-17 16:59N 39°54' W 075°12'0 0.0
2017-Aug-17 16:30N 39°54' W 075°12'0 0.0
2017-Aug-17 15:57N 39°54' W 075°12'0 0.0
2017-Aug-17 15:28N 39°54' W 075°12'0 0.0
2017-Aug-17 14:58N 39°54' W 075°12'0 0.0
2017-Aug-17 14:28N 39°54' W 075°12'0 0.0
2017-Aug-17 13:59N 39°54' W 075°12'0 0.0
2017-Aug-17 13:29N 39°54' W 075°12'0 0.0
2017-Aug-17 12:59N 39°54' W 075°12'0 0.0
2017-Aug-17 12:30N 39°54' W 075°12'0 0.0
2017-Aug-17 12:00N 39°54' W 075°12'0 0.0
2017-Aug-17 11:30N 39°54' W 075°12'0 0.0
2017-Aug-17 10:54N 39°54' W 075°12'0 0.1
2017-Aug-17 10:28N 39°54' W 075°12'0 0.0
2017-Aug-17 09:58N 39°54' W 075°12'0 0.0
2017-Aug-17 09:29N 39°54' W 075°12'0 0.0
2017-Aug-17 08:59N 39°54' W 075°12'0 0.0
2017-Aug-17 08:29N 39°54' W 075°12'0 0.0
2017-Aug-17 07:57N 39°54' W 075°12'0 0.0
2017-Aug-17 07:30N 39°54' W 075°12'0 0.0
2017-Aug-17 07:00N 39°54' W 075°12'0 0.0
2017-Aug-17 06:30N 39°54' W 075°12'0 0.0
2017-Aug-17 05:58N 39°54' W 075°12'0 0.0
2017-Aug-17 05:28N 39°54' W 075°12'0 0.0
2017-Aug-17 04:59N 39°54' W 075°12'0 0.0
2017-Aug-17 04:29N 39°54' W 075°12'0 0.0
2017-Aug-17 03:59N 39°54' W 075°12'0 0.0
2017-Aug-17 03:30N 39°54' W 075°12'0 0.0
2017-Aug-17 03:00N 39°54' W 075°12'0 0.0
2017-Aug-17 02:30N 39°54' W 075°12'0 0.0
2017-Aug-17 02:00N 39°54' W 075°12'0 0.0
2017-Aug-17 01:28N 39°54' W 075°12'0 0.0
2017-Aug-17 00:58N 39°54' W 075°12'0 0.0
2017-Aug-17 00:29N 39°54' W 075°12'0 0.0
2017-Aug-16 23:59N 39°54' W 075°12'0 0.0
2017-Aug-16 23:29N 39°54' W 075°12'0 0.0
2017-Aug-16 23:00N 39°54' W 075°12'0 0.0
2017-Aug-16 22:30N 39°54' W 075°12'0 0.0
2017-Aug-16 22:00N 39°54' W 075°12'0 0.0
2017-Aug-16 21:28N 39°54' W 075°12'0 0.0
2017-Aug-16 20:58N 39°54' W 075°12'0 0.0
2017-Aug-16 20:28N 39°54' W 075°12'0 0.0
2017-Aug-16 19:59N 39°54' W 075°12'0 0.0
2017-Aug-16 19:29N 39°54' W 075°12'0 0.0
2017-Aug-16 18:59N 39°54' W 075°12'0 0.0
2017-Aug-16 18:30N 39°54' W 075°12'0 0.0
2017-Aug-16 18:00N 39°54' W 075°12'0 0.0
2017-Aug-16 17:30N 39°54' W 075°12'0 0.0
2017-Aug-16 16:55N 39°54' W 075°12'0 0.0
2017-Aug-16 16:28N 39°54' W 075°12'0 0.0
2017-Aug-16 15:58N 39°54' W 075°12'0 0.0
2017-Aug-16 15:29N 39°54' W 075°12'0 0.0
2017-Aug-16 14:59N 39°54' W 075°12'0 0.0
2017-Aug-16 14:29N 39°54' W 075°12'0 0.0
2017-Aug-16 14:00N 39°54' W 075°12'0 0.0
2017-Aug-16 13:30N 39°54' W 075°12'0 0.0
2017-Aug-16 13:00N 39°54' W 075°12'0 0.0
2017-Aug-16 12:28N 39°54' W 075°12'0 0.0
2017-Aug-16 11:58N 39°54' W 075°12'0 0.0
2017-Aug-16 11:28N 39°54' W 075°12'0 0.0
2017-Aug-16 10:59N 39°54' W 075°12'0 0.0
2017-Aug-16 10:29N 39°54' W 075°12'0 0.0
2017-Aug-16 09:59N 39°54' W 075°12'0 0.0
2017-Aug-16 09:30N 39°54' W 075°12'0 0.0
2017-Aug-16 09:00N 39°54' W 075°12'0 0.0
2017-Aug-16 08:30N 39°54' W 075°12'0 0.0
2017-Aug-16 08:00N 39°54' W 075°12'0 0.0
2017-Aug-16 07:25N 39°54' W 075°12'0 0.0
2017-Aug-16 06:58N 39°54' W 075°12'0 0.0
2017-Aug-16 06:29N 39°54' W 075°12'0 0.0
2017-Aug-16 05:59N 39°54' W 075°12'0 0.0
2017-Aug-16 05:29N 39°54' W 075°12'0 0.0
2017-Aug-16 05:00N 39°54' W 075°12'0 0.0
2017-Aug-16 04:30N 39°54' W 075°12'0 0.0
2017-Aug-16 04:00N 39°54' W 075°12'0 0.0
2017-Aug-16 03:31N 39°54' W 075°12'0 0.0
2017-Aug-16 02:58N 39°54' W 075°12'0 0.0
2017-Aug-16 02:28N 39°54' W 075°12'0 0.0
2017-Aug-16 01:59N 39°54' W 075°12'0 0.0
2017-Aug-16 01:29N 39°54' W 075°12'0 0.0
2017-Aug-16 00:59N 39°54' W 075°12'0 0.0
2017-Aug-16 00:30N 39°54' W 075°12'0 0.0
2017-Aug-16 00:00N 39°54' W 075°12'0 0.0
2017-Aug-15 23:30N 39°54' W 075°12'0 0.0
2017-Aug-15 22:58N 39°54' W 075°12'0 0.0
2017-Aug-15 22:28N 39°54' W 075°12'0 0.0
2017-Aug-15 21:58N 39°54' W 075°12'0 0.0
2017-Aug-15 21:29N 39°54' W 075°12'0 0.0
2017-Aug-15 20:59N 39°54' W 075°12'0 0.0
2017-Aug-15 20:30N 39°54' W 075°12'0 0.0
2017-Aug-15 20:00N 39°54' W 075°12'0 0.0
2017-Aug-15 19:30N 39°54' W 075°12'0 0.0
2017-Aug-15 19:00N 39°54' W 075°12'0 0.0
2017-Aug-15 18:28N 39°54' W 075°12'0 0.0
2017-Aug-15 17:58N 39°54' W 075°12'0 0.0
2017-Aug-15 17:28N 39°54' W 075°12'0 0.0
2017-Aug-15 16:59N 39°54' W 075°12'0 0.0
2017-Aug-15 16:29N 39°54' W 075°12'0 0.0
2017-Aug-15 15:59N 39°54' W 075°12'0 0.0
2017-Aug-15 15:30N 39°54' W 075°12'0 0.0
2017-Aug-15 15:00N 39°54' W 075°12'0 0.0
2017-Aug-15 14:30N 39°54' W 075°12'0 0.0
2017-Aug-15 13:58N 39°54' W 075°12'0 0.0
2017-Aug-15 13:28N 39°54' W 075°12'0 0.0
2017-Aug-15 12:59N 39°54' W 075°12'0 0.0
2017-Aug-15 12:29N 39°54' W 075°12'0 0.0
2017-Aug-15 11:59N 39°54' W 075°12'0 0.0
2017-Aug-15 11:29N 39°54' W 075°12'0 0.0
2017-Aug-15 11:00N 39°54' W 075°12'0 0.0
2017-Aug-15 10:30N 39°54' W 075°12'0 0.0
2017-Aug-15 10:01N 39°54' W 075°12'0 0.0
2017-Aug-15 09:28N 39°54' W 075°12'0 0.0
2017-Aug-15 08:58N 39°54' W 075°12'0 0.0
2017-Aug-15 08:28N 39°54' W 075°12'0 0.0
2017-Aug-15 07:59N 39°54' W 075°12'0 0.0
2017-Aug-15 07:23N 39°54' W 075°12'0 0.0
2017-Aug-15 07:00N 39°54' W 075°12'0 0.0
2017-Aug-15 06:30N 39°54' W 075°12'0 0.0
2017-Aug-15 06:00N 39°54' W 075°12'0 0.0
2017-Aug-15 05:28N 39°54' W 075°12'0 0.0
2017-Aug-15 05:01N 39°54' W 075°12'0 0.0
2017-Aug-15 04:28N 39°54' W 075°12'0 0.0
2017-Aug-15 03:59N 39°54' W 075°12'0 0.0
2017-Aug-15 03:29N 39°54' W 075°12'0 0.0
2017-Aug-15 02:59N 39°54' W 075°12'0 0.0
2017-Aug-15 02:30N 39°54' W 075°12'0 0.0
2017-Aug-15 02:00N 39°54' W 075°12'0 0.0
2017-Aug-15 01:30N 39°54' W 075°12'0 0.0
2017-Aug-15 01:00N 39°54' W 075°12'0 0.0
2017-Aug-15 00:28N 39°54' W 075°12'0 0.0
2017-Aug-14 23:58N 39°54' W 075°12'0 0.0
2017-Aug-14 23:29N 39°54' W 075°12'0 0.0
2017-Aug-14 22:59N 39°54' W 075°12'0 0.0
2017-Aug-14 22:29N 39°54' W 075°12'0 0.0
2017-Aug-14 21:59N 39°54' W 075°12'0 0.0
2017-Aug-14 21:30N 39°54' W 075°12'0 0.0
2017-Aug-14 21:00N 39°54' W 075°12'0 0.0
2017-Aug-14 20:30N 39°54' W 075°12'0 0.0
2017-Aug-14 19:58N 39°54' W 075°12'0 0.0
2017-Aug-14 19:28N 39°54' W 075°12'0 0.0
2017-Aug-14 18:59N 39°54' W 075°12'0 0.0
2017-Aug-14 18:29N 39°54' W 075°12'0 0.0
2017-Aug-14 17:59N 39°54' W 075°12'0 0.0
2017-Aug-14 17:30N 39°54' W 075°12'0 0.0
2017-Aug-14 17:00N 39°54' W 075°12'0 0.0
2017-Aug-14 16:30N 39°54' W 075°12'0 0.0
2017-Aug-14 16:01N 39°54' W 075°12'0 0.0
2017-Aug-14 15:28N 39°54' W 075°12'0 0.0
2017-Aug-14 14:58N 39°54' W 075°12'0 0.0
2017-Aug-14 14:29N 39°54' W 075°12'0 0.0
2017-Aug-14 13:59N 39°54' W 075°12'0 0.0
2017-Aug-14 13:29N 39°54' W 075°12'0 0.0
2017-Aug-14 13:00N 39°54' W 075°12'0 0.0
2017-Aug-14 12:30N 39°54' W 075°12'0 0.0
2017-Aug-14 12:00N 39°54' W 075°12'0 0.0
2017-Aug-14 11:30N 39°54' W 075°12'0 0.0
2017-Aug-14 10:59N 39°54' W 075°12'0 0.0
2017-Aug-14 10:29N 39°54' W 075°12'0 0.0
2017-Aug-14 09:59N 39°54' W 075°12'0 0.0
2017-Aug-14 09:29N 39°54' W 075°12'0 0.0
2017-Aug-14 09:00N 39°54' W 075°12'0 0.0
2017-Aug-14 08:30N 39°54' W 075°12'0 0.0
2017-Aug-14 08:00N 39°54' W 075°12'0 0.0
2017-Aug-14 07:31N 39°54' W 075°12'0 0.0
2017-Aug-14 06:58N 39°54' W 075°12'0 0.0
2017-Aug-14 06:28N 39°54' W 075°12'0 0.0
2017-Aug-14 05:59N 39°54' W 075°12'0 0.0
2017-Aug-14 05:29N 39°54' W 075°12'0 0.0
2017-Aug-14 04:59N 39°54' W 075°12'0 0.0
2017-Aug-14 04:30N 39°54' W 075°12'0 0.0
2017-Aug-14 04:00N 39°54' W 075°12'0 0.0
2017-Aug-14 03:30N 39°54' W 075°12'0 0.0
2017-Aug-14 03:00N 39°54' W 075°12'0 0.0
2017-Aug-14 02:28N 39°54' W 075°12'0 0.1
2017-Aug-14 02:01N 39°54' W 075°12'3 5.8
2017-Aug-14 01:29N 39°54' W 075°08'0 0.0
2017-Aug-14 00:59N 39°54' W 075°08'0 0.0
2017-Aug-14 00:30N 39°54' W 075°08'0 0.0
2017-Aug-14 00:00N 39°54' W 075°08'0 0.0
2017-Aug-13 23:30N 39°54' W 075°08'0 0.0
2017-Aug-13 23:01N 39°54' W 075°08'0 0.0
2017-Aug-13 22:28N 39°54' W 075°08'0 0.0
2017-Aug-13 21:58N 39°54' W 075°08'2 5.1
2017-Aug-13 21:30N 39°56' W 075°08'4 8.0
2017-Aug-13 21:00N 39°59' W 075°04'0 0.9
2017-Aug-13 20:30N 39°59' W 075°05'4 8.3
2017-Aug-13 20:00N 39°55' W 075°08'2 3.0
2017-Aug-13 19:31N 39°54' W 075°08'4 7.5
2017-Aug-13 19:00N 39°57' W 075°08'3 5.8
2017-Aug-13 18:30N 39°59' W 075°04'0 0.8
2017-Aug-13 18:00N 39°59' W 075°05'3 6.3
2017-Aug-13 17:30N 39°57' W 075°08'1 1.7
2017-Aug-13 16:59N 39°56' W 075°08'0 0.0
2017-Aug-13 16:29N 39°56' W 075°08'0 0.0
2017-Aug-13 15:59N 39°56' W 075°08'0 0.0
2017-Aug-13 15:30N 39°56' W 075°08'0 0.0
2017-Aug-13 15:00N 39°56' W 075°08'0 0.0
2017-Aug-13 14:30N 39°56' W 075°08'0 0.0
2017-Aug-13 13:58N 39°56' W 075°08'0 0.0
2017-Aug-13 13:28N 39°56' W 075°08'0 0.0
2017-Aug-13 12:58N 39°56' W 075°08'0 0.0
2017-Aug-13 12:29N 39°56' W 075°08'0 0.0
2017-Aug-13 11:59N 39°56' W 075°08'0 0.1
2017-Aug-13 11:29N 39°56' W 075°08'0 0.4
2017-Aug-13 11:00N 39°56' W 075°08'0 0.1
2017-Aug-13 10:30N 39°56' W 075°08'0 0.0
2017-Aug-13 10:00N 39°56' W 075°08'0 0.0
2017-Aug-13 09:30N 39°56' W 075°08'0 0.0
2017-Aug-13 08:58N 39°56' W 075°08'0 0.0
2017-Aug-13 08:28N 39°56' W 075°08'0 0.0
2017-Aug-13 07:59N 39°56' W 075°08'0 0.0
2017-Aug-13 07:29N 39°56' W 075°08'0 0.0
2017-Aug-13 06:59N 39°56' W 075°08'0 0.0
2017-Aug-13 06:30N 39°56' W 075°08'0 0.0
2017-Aug-13 06:00N 39°56' W 075°08'0 0.3
2017-Aug-13 05:30N 39°56' W 075°08'0 0.1
2017-Aug-13 04:58N 39°56' W 075°08'0 0.0
2017-Aug-13 04:28N 39°56' W 075°08'0 0.0
2017-Aug-13 03:58N 39°56' W 075°08'0 0.0
2017-Aug-13 03:29N 39°56' W 075°08'0 0.0
2017-Aug-13 02:59N 39°56' W 075°08'0 0.0
2017-Aug-13 02:29N 39°56' W 075°08'0 0.0
2017-Aug-13 02:00N 39°56' W 075°08'0 0.0
2017-Aug-13 01:30N 39°56' W 075°08'0 0.0
2017-Aug-13 01:00N 39°56' W 075°08'0 0.0
2017-Aug-13 00:28N 39°56' W 075°08'0 0.1
2017-Aug-12 23:58N 39°56' W 075°08'0 0.5
2017-Aug-12 23:28N 39°56' W 075°08'0 0.1
2017-Aug-12 22:59N 39°56' W 075°08'0 0.0
2017-Aug-12 22:29N 39°56' W 075°08'0 0.0
2017-Aug-12 21:59N 39°56' W 075°08'0 0.0
2017-Aug-12 21:30N 39°56' W 075°08'0 0.0
2017-Aug-12 21:00N 39°56' W 075°08'0 0.0
2017-Aug-12 20:27N 39°56' W 075°08'0 0.0
2017-Aug-12 20:01N 39°56' W 075°08'0 0.0
2017-Aug-12 19:25N 39°56' W 075°08'0 0.0
2017-Aug-12 18:58N 39°56' W 075°08'0 0.0
2017-Aug-12 18:29N 39°56' W 075°08'0 0.0
2017-Aug-12 17:59N 39°56' W 075°08'0 0.3
2017-Aug-12 17:29N 39°56' W 075°08'0 0.2
2017-Aug-12 17:00N 39°56' W 075°08'0 0.0
2017-Aug-12 16:30N 39°56' W 075°08'0 0.0
2017-Aug-12 16:00N 39°56' W 075°08'0 0.0
2017-Aug-12 15:30N 39°56' W 075°08'0 0.0
2017-Aug-12 14:58N 39°56' W 075°08'0 0.0
2017-Aug-12 14:28N 39°56' W 075°08'0 0.0
2017-Aug-12 13:59N 39°56' W 075°08'0 0.0
2017-Aug-12 13:29N 39°56' W 075°08'0 0.0
2017-Aug-12 12:59N 39°56' W 075°08'0 0.0
2017-Aug-12 12:30N 39°56' W 075°08'0 0.0
2017-Aug-12 12:00N 39°56' W 075°08'0 0.0
2017-Aug-12 11:30N 39°56' W 075°08'0 0.0
2017-Aug-12 10:58N 39°56' W 075°08'0 0.4
2017-Aug-12 10:28N 39°56' W 075°08'0 0.1
2017-Aug-12 09:58N 39°56' W 075°08'0 0.0
2017-Aug-12 09:29N 39°56' W 075°08'0 0.0
2017-Aug-12 08:59N 39°56' W 075°08'0 0.0
2017-Aug-12 08:29N 39°56' W 075°08'0 0.0
2017-Aug-12 08:00N 39°56' W 075°08'0 0.0
2017-Aug-12 07:30N 39°56' W 075°08'0 0.0
2017-Aug-12 07:00N 39°56' W 075°08'0 0.0
2017-Aug-12 06:30N 39°56' W 075°08'0 0.0
2017-Aug-12 05:58N 39°56' W 075°08'0 0.0
2017-Aug-12 05:28N 39°56' W 075°08'0 0.0
2017-Aug-12 04:59N 39°56' W 075°08'0 0.4
2017-Aug-12 04:29N 39°56' W 075°08'0 0.1
2017-Aug-12 03:56N 39°56' W 075°08'0 0.0
2017-Aug-12 03:30N 39°56' W 075°08'0 0.0
2017-Aug-12 03:00N 39°56' W 075°08'0 0.0
2017-Aug-12 02:30N 39°56' W 075°08'0 0.0
2017-Aug-12 02:00N 39°56' W 075°08'0 0.0
2017-Aug-12 01:28N 39°56' W 075°08'0 0.0
2017-Aug-12 00:58N 39°56' W 075°08'0 0.0
2017-Aug-12 00:29N 39°56' W 075°08'0 0.0
2017-Aug-11 23:59N 39°56' W 075°08'0 0.0
2017-Aug-11 23:29N 39°56' W 075°08'0 0.1
2017-Aug-11 23:00N 39°56' W 075°08'0 0.4
2017-Aug-11 22:30N 39°56' W 075°08'0 0.1
2017-Aug-11 21:57N 39°56' W 075°08'0 0.0
2017-Aug-11 21:30N 39°56' W 075°08'  
Track history (hours):
 
Tides and Currents Weather Stations Pressure Air Temp Water Temp Dewpoint Dewpoint Depression Visibility Wind Speed Wind Dir Waves Ship Positions

Wye River

Owner: Vane Line Bunkering, Inc., Philadelphia, PA. More information available from US FCC via Universal Licensing System and Coast Guard Vessel Documentation Center.

Last reported at 2017-Aug-21 21:30 UTC. Time now 2017-Aug-21 21:53 UTC.
Position N 39°54' W 075°08'.

Length 30 m; draft 4.3 m.

Type: Tow > 200 m length. MMSI: 367341190.

Date/timePositionNaut miles runAvg speedWind from/ knotsBaromVisibWave heightAir tempDewpointWater temp
2017-Aug-21 21:30N 39°54' W 075°08'0 0.4
2017-Aug-21 21:00N 39°54' W 075°08'0 0.0
2017-Aug-21 20:31N 39°54' W 075°08'0 0.0
2017-Aug-21 19:58N 39°54' W 075°08'0 0.0
2017-Aug-21 19:28N 39°54' W 075°08'0 0.9
2017-Aug-21 19:01N 39°54' W 075°08'0 0.5
2017-Aug-21 18:31N 39°54' W 075°08'0 0.4
2017-Aug-21 18:01N 39°54' W 075°08'3 6.1
2017-Aug-21 17:30N 39°54' W 075°12'3 5.0
2017-Aug-21 16:58N 39°53' W 075°09'0 0.0
2017-Aug-21 16:29N 39°53' W 075°09'1 1.8
2017-Aug-21 16:01N 39°53' W 075°10'2 3.1
2017-Aug-21 15:31N 39°54' W 075°12'0 0.7
2017-Aug-21 14:58N 39°54' W 075°12'0 0.0
2017-Aug-21 14:28N 39°54' W 075°12'0 0.0
2017-Aug-21 13:59N 39°54' W 075°12'0 0.0
2017-Aug-21 13:29N 39°54' W 075°12'0 0.0
2017-Aug-21 12:59N 39°54' W 075°12'0 0.0
2017-Aug-21 12:30N 39°54' W 075°12'0 0.0
2017-Aug-21 12:00N 39°54' W 075°12'0 0.0
2017-Aug-21 11:30N 39°54' W 075°12'0 0.0
2017-Aug-21 10:58N 39°54' W 075°12'0 0.0
2017-Aug-21 10:28N 39°54' W 075°12'0 0.0
2017-Aug-21 09:58N 39°54' W 075°12'0 0.0
2017-Aug-21 09:29N 39°54' W 075°12'0 0.0
2017-Aug-21 09:00N 39°54' W 075°12'0 0.0
2017-Aug-21 08:28N 39°54' W 075°12'0 0.0
2017-Aug-21 07:59N 39°54' W 075°12'0 0.0
2017-Aug-21 07:29N 39°54' W 075°12'0 0.0
2017-Aug-21 06:59N 39°54' W 075°12'0 0.0
2017-Aug-21 06:29N 39°54' W 075°12'0 0.0
2017-Aug-21 06:00N 39°54' W 075°12'0 0.0
2017-Aug-21 05:30N 39°54' W 075°12'0 0.0
2017-Aug-21 05:00N 39°54' W 075°12'0 0.0
2017-Aug-21 04:28N 39°54' W 075°12'0 0.0
2017-Aug-21 03:58N 39°54' W 075°12'0 0.0
2017-Aug-21 03:29N 39°54' W 075°12'0 0.0
2017-Aug-21 02:58N 39°54' W 075°12'0 0.0
2017-Aug-21 02:29N 39°54' W 075°12'0 0.0
2017-Aug-21 02:00N 39°54' W 075°12'1 2.5
2017-Aug-21 01:30N 39°53' W 075°11'2 4.3
2017-Aug-21 00:58N 39°54' W 075°08'0 0.0
2017-Aug-21 00:29N 39°54' W 075°08'1 1.2
2017-Aug-20 23:59N 39°54' W 075°08'0 0.2
2017-Aug-20 23:29N 39°54' W 075°08'0 0.0
2017-Aug-20 23:00N 39°54' W 075°08'0 0.0
2017-Aug-20 22:30N 39°54' W 075°08'0 0.0
2017-Aug-20 22:00N 39°54' W 075°08'0 0.0
2017-Aug-20 21:30N 39°54' W 075°08'1 1.4
2017-Aug-20 20:58N 39°54' W 075°08'1 2.9
2017-Aug-20 20:30N 39°55' W 075°08'4 8.2
2017-Aug-20 20:00N 39°59' W 075°05'0 0.7
2017-Aug-20 19:30N 39°59' W 075°05'2 3.8
2017-Aug-20 19:00N 39°58' W 075°07'3 6.1
2017-Aug-20 18:30N 39°55' W 075°08'3 5.8
2017-Aug-20 18:00N 39°53' W 075°10'1 2.1
2017-Aug-20 17:30N 39°54' W 075°12'0 0.1
2017-Aug-20 17:00N 39°53' W 075°12'1 2.4
2017-Aug-20 16:30N 39°53' W 075°10'2 2.9
2017-Aug-20 15:58N 39°54' W 075°09'1 1.9
2017-Aug-20 15:31N 39°54' W 075°08'3 5.9
2017-Aug-20 15:00N 39°57' W 075°08'3 5.5
2017-Aug-20 14:30N 39°59' W 075°05'0 0.0
2017-Aug-20 14:00N 39°59' W 075°05'0 0.0
2017-Aug-20 13:28N 39°59' W 075°05'0 0.0
2017-Aug-20 12:58N 39°59' W 075°05'0 0.7
2017-Aug-20 12:30N 39°59' W 075°05'1 1.1
2017-Aug-20 12:00N 39°58' W 075°06'3 6.1
2017-Aug-20 11:30N 39°56' W 075°08'2 4.8
2017-Aug-20 11:00N 39°54' W 075°08'3 5.6
2017-Aug-20 10:30N 39°53' W 075°12'2 3.7
2017-Aug-20 09:59N 39°55' W 075°13'0 0.1
2017-Aug-20 09:30N 39°55' W 075°13'1 2.0
2017-Aug-20 08:59N 39°54' W 075°12'0 0.0
2017-Aug-20 08:29N 39°54' W 075°12'0 0.0
2017-Aug-20 08:00N 39°54' W 075°12'0 0.0
2017-Aug-20 07:30N 39°54' W 075°12'0 0.0
2017-Aug-20 07:00N 39°54' W 075°12'0 0.0
2017-Aug-20 06:30N 39°54' W 075°12'0 0.0
2017-Aug-20 05:58N 39°54' W 075°12'0 0.0
2017-Aug-20 05:28N 39°54' W 075°12'0 0.0
2017-Aug-20 04:59N 39°54' W 075°12'0 0.0
2017-Aug-20 04:29N 39°54' W 075°12'0 0.0
2017-Aug-20 03:59N 39°54' W 075°12'0 0.0
2017-Aug-20 03:30N 39°54' W 075°12'0 0.0
2017-Aug-20 03:00N 39°54' W 075°12'0 0.0
2017-Aug-20 02:30N 39°54' W 075°12'0 0.0
2017-Aug-20 02:00N 39°54' W 075°12'0 0.0
2017-Aug-20 01:28N 39°54' W 075°12'0 0.0
2017-Aug-20 00:58N 39°54' W 075°12'0 0.0
2017-Aug-20 00:29N 39°54' W 075°12'0 0.0
2017-Aug-19 23:59N 39°54' W 075°12'0 0.0
2017-Aug-19 23:29N 39°54' W 075°12'0 0.0
2017-Aug-19 23:00N 39°54' W 075°12'0 0.0
2017-Aug-19 22:30N 39°54' W 075°12'0 0.0
2017-Aug-19 22:00N 39°54' W 075°12'0 0.0
2017-Aug-19 21:28N 39°54' W 075°12'0 0.0
2017-Aug-19 20:58N 39°54' W 075°12'0 0.0
2017-Aug-19 20:28N 39°54' W 075°12'0 0.0
2017-Aug-19 19:59N 39°54' W 075°12'0 0.0
2017-Aug-19 19:29N 39°54' W 075°12'0 0.0
2017-Aug-19 18:59N 39°54' W 075°12'0 0.0
2017-Aug-19 18:30N 39°54' W 075°12'0 0.0
2017-Aug-19 18:00N 39°54' W 075°12'0 0.0
2017-Aug-19 17:30N 39°54' W 075°12'0 0.0
2017-Aug-19 16:58N 39°54' W 075°12'0 0.0
2017-Aug-19 16:28N 39°54' W 075°12'0 0.0
2017-Aug-19 15:58N 39°54' W 075°12'0 0.0
2017-Aug-19 15:29N 39°54' W 075°12'0 0.0
2017-Aug-19 14:59N 39°54' W 075°12'0 0.0
2017-Aug-19 14:00N 39°54' W 075°12'0 0.0
2017-Aug-19 13:28N 39°54' W 075°12'0 0.0
2017-Aug-19 12:58N 39°54' W 075°12'0 0.0
2017-Aug-19 12:30N 39°54' W 075°12'0 0.0
2017-Aug-19 11:55N 39°54' W 075°12'0 0.0
2017-Aug-19 11:25N 39°54' W 075°12'0 0.0
2017-Aug-19 10:59N 39°54' W 075°12'0 0.0
2017-Aug-19 10:29N 39°54' W 075°12'0 0.0
2017-Aug-19 09:59N 39°54' W 075°12'0 0.0
2017-Aug-19 09:30N 39°54' W 075°12'0 0.0
2017-Aug-19 09:00N 39°54' W 075°12'0 0.0
2017-Aug-19 08:30N 39°54' W 075°12'0 0.0
2017-Aug-19 07:58N 39°54' W 075°12'0 0.0
2017-Aug-19 07:28N 39°54' W 075°12'0 0.0
2017-Aug-19 06:58N 39°54' W 075°12'0 0.0
2017-Aug-19 06:29N 39°54' W 075°12'0 0.0
2017-Aug-19 05:59N 39°54' W 075°12'0 0.0
2017-Aug-19 05:29N 39°54' W 075°12'0 0.0
2017-Aug-19 05:00N 39°54' W 075°12'0 0.0
2017-Aug-19 04:30N 39°54' W 075°12'0 0.0
2017-Aug-19 04:00N 39°54' W 075°12'0 0.0
2017-Aug-19 03:30N 39°54' W 075°12'0 0.0
2017-Aug-19 02:58N 39°54' W 075°12'0 0.0
2017-Aug-19 02:29N 39°54' W 075°12'0 0.0
2017-Aug-19 01:59N 39°54' W 075°12'0 0.0
2017-Aug-19 01:29N 39°54' W 075°12'0 0.0
2017-Aug-19 00:59N 39°54' W 075°12'0 0.0
2017-Aug-19 00:30N 39°54' W 075°12'0 0.0
2017-Aug-19 00:00N 39°54' W 075°12'0 0.0
2017-Aug-18 23:30N 39°54' W 075°12'0 0.0
2017-Aug-18 22:58N 39°54' W 075°12'0 0.0
2017-Aug-18 22:22N 39°54' W 075°12'0 0.0
2017-Aug-18 21:59N 39°54' W 075°12'0 0.0
2017-Aug-18 21:27N 39°54' W 075°12'0 0.0
2017-Aug-18 21:00N 39°54' W 075°12'3 5.7
2017-Aug-18 20:29N 39°53' W 075°09'2 4.9
2017-Aug-18 20:00N 39°53' W 075°12'1 1.2
2017-Aug-18 19:30N 39°54' W 075°12'0 0.0
2017-Aug-18 19:00N 39°54' W 075°12'0 0.0
2017-Aug-18 18:29N 39°54' W 075°12'0 0.0
2017-Aug-18 17:59N 39°54' W 075°12'0 0.0
2017-Aug-18 17:28N 39°54' W 075°12'0 0.0
2017-Aug-18 16:59N 39°54' W 075°12'0 0.0
2017-Aug-18 16:29N 39°54' W 075°12'0 0.0
2017-Aug-18 15:59N 39°54' W 075°12'0 0.0
2017-Aug-18 15:29N 39°54' W 075°12'0 0.0
2017-Aug-18 15:00N 39°54' W 075°12'0 0.0
2017-Aug-18 14:00N 39°54' W 075°12'0 0.0
2017-Aug-18 13:28N 39°54' W 075°12'0 0.0
2017-Aug-18 12:58N 39°54' W 075°12'0 0.0
2017-Aug-18 12:26N 39°54' W 075°12'0 0.0
2017-Aug-18 11:59N 39°54' W 075°12'0 0.0
2017-Aug-18 11:26N 39°54' W 075°12'0 0.0
2017-Aug-18 11:00N 39°54' W 075°12'0 0.0
2017-Aug-18 10:30N 39°54' W 075°12'0 0.0
2017-Aug-18 10:00N 39°54' W 075°12'0 0.0
2017-Aug-18 09:28N 39°54' W 075°12'0 0.0
2017-Aug-18 08:58N 39°54' W 075°12'0 0.0
2017-Aug-18 08:28N 39°54' W 075°12'0 0.0
2017-Aug-18 07:59N 39°54' W 075°12'0 0.0
2017-Aug-18 07:29N 39°54' W 075°12'0 0.0
2017-Aug-18 06:56N 39°54' W 075°12'0 0.0
2017-Aug-18 06:30N 39°54' W 075°12'0 0.0
2017-Aug-18 06:00N 39°54' W 075°12'0 0.0
2017-Aug-18 05:30N 39°54' W 075°12'0 0.0
2017-Aug-18 04:58N 39°54' W 075°12'0 0.0
2017-Aug-18 04:28N 39°54' W 075°12'0 0.0
2017-Aug-18 03:58N 39°54' W 075°12'0 0.0
2017-Aug-18 03:29N 39°54' W 075°12'0 0.0
2017-Aug-18 02:59N 39°54' W 075°12'0 0.0
2017-Aug-18 02:29N 39°54' W 075°12'0 0.0
2017-Aug-18 02:00N 39°54' W 075°12'0 0.0
2017-Aug-18 01:30N 39°54' W 075°12'0 0.0
2017-Aug-18 01:00N 39°54' W 075°12'0 0.0
2017-Aug-18 00:30N 39°54' W 075°12'0 0.0
2017-Aug-17 23:58N 39°54' W 075°12'0 0.0
2017-Aug-17 23:28N 39°54' W 075°12'0 0.0
2017-Aug-17 22:59N 39°54' W 075°12'0 0.0
2017-Aug-17 22:29N 39°54' W 075°12'0 0.0
2017-Aug-17 21:59N 39°54' W 075°12'0 0.0
2017-Aug-17 21:30N 39°54' W 075°12'0 0.0
2017-Aug-17 21:00N 39°54' W 075°12'0 0.0
2017-Aug-17 20:30N 39°54' W 075°12'0 0.0
2017-Aug-17 19:58N 39°54' W 075°12'0 0.0
2017-Aug-17 19:28N 39°54' W 075°12'0 0.0
2017-Aug-17 18:55N 39°54' W 075°12'0 0.0
2017-Aug-17 18:29N 39°54' W 075°12'0 0.0
2017-Aug-17 17:56N 39°54' W 075°12'0 0.0
2017-Aug-17 17:29N 39°54' W 075°12'0 0.0
2017-Aug-17 16:59N 39°54' W 075°12'0 0.0
2017-Aug-17 16:30N 39°54' W 075°12'0 0.0
2017-Aug-17 15:57N 39°54' W 075°12'0 0.0
2017-Aug-17 15:28N 39°54' W 075°12'0 0.0
2017-Aug-17 14:58N 39°54' W 075°12'0 0.0
2017-Aug-17 14:28N 39°54' W 075°12'0 0.0
2017-Aug-17 13:59N 39°54' W 075°12'0 0.0
2017-Aug-17 13:29N 39°54' W 075°12'0 0.0
2017-Aug-17 12:59N 39°54' W 075°12'0 0.0
2017-Aug-17 12:30N 39°54' W 075°12'0 0.0
2017-Aug-17 12:00N 39°54' W 075°12'0 0.0
2017-Aug-17 11:30N 39°54' W 075°12'0 0.0
2017-Aug-17 10:54N 39°54' W 075°12'0 0.1
2017-Aug-17 10:28N 39°54' W 075°12'0 0.0
2017-Aug-17 09:58N 39°54' W 075°12'0 0.0
2017-Aug-17 09:29N 39°54' W 075°12'0 0.0
2017-Aug-17 08:59N 39°54' W 075°12'0 0.0
2017-Aug-17 08:29N 39°54' W 075°12'0 0.0
2017-Aug-17 07:57N 39°54' W 075°12'0 0.0
2017-Aug-17 07:30N 39°54' W 075°12'0 0.0
2017-Aug-17 07:00N 39°54' W 075°12'0 0.0
2017-Aug-17 06:30N 39°54' W 075°12'0 0.0
2017-Aug-17 05:58N 39°54' W 075°12'0 0.0
2017-Aug-17 05:28N 39°54' W 075°12'0 0.0
2017-Aug-17 04:59N 39°54' W 075°12'0 0.0
2017-Aug-17 04:29N 39°54' W 075°12'0 0.0
2017-Aug-17 03:59N 39°54' W 075°12'0 0.0
2017-Aug-17 03:30N 39°54' W 075°12'0 0.0
2017-Aug-17 03:00N 39°54' W 075°12'0 0.0
2017-Aug-17 02:30N 39°54' W 075°12'0 0.0
2017-Aug-17 02:00N 39°54' W 075°12'0 0.0
2017-Aug-17 01:28N 39°54' W 075°12'0 0.0
2017-Aug-17 00:58N 39°54' W 075°12'0 0.0
2017-Aug-17 00:29N 39°54' W 075°12'0 0.0
2017-Aug-16 23:59N 39°54' W 075°12'0 0.0
2017-Aug-16 23:29N 39°54' W 075°12'0 0.0
2017-Aug-16 23:00N 39°54' W 075°12'0 0.0
2017-Aug-16 22:30N 39°54' W 075°12'0 0.0
2017-Aug-16 22:00N 39°54' W 075°12'0 0.0
2017-Aug-16 21:28N 39°54' W 075°12'0 0.0
2017-Aug-16 20:58N 39°54' W 075°12'0 0.0
2017-Aug-16 20:28N 39°54' W 075°12'0 0.0
2017-Aug-16 19:59N 39°54' W 075°12'0 0.0
2017-Aug-16 19:29N 39°54' W 075°12'0 0.0
2017-Aug-16 18:59N 39°54' W 075°12'0 0.0
2017-Aug-16 18:30N 39°54' W 075°12'0 0.0
2017-Aug-16 18:00N 39°54' W 075°12'0 0.0
2017-Aug-16 17:30N 39°54' W 075°12'0 0.0
2017-Aug-16 16:55N 39°54' W 075°12'0 0.0
2017-Aug-16 16:28N 39°54' W 075°12'0 0.0
2017-Aug-16 15:58N 39°54' W 075°12'0 0.0
2017-Aug-16 15:29N 39°54' W 075°12'0 0.0
2017-Aug-16 14:59N 39°54' W 075°12'0 0.0
2017-Aug-16 14:29N 39°54' W 075°12'0 0.0
2017-Aug-16 14:00N 39°54' W 075°12'0 0.0
2017-Aug-16 13:30N 39°54' W 075°12'0 0.0
2017-Aug-16 13:00N 39°54' W 075°12'0 0.0
2017-Aug-16 12:28N 39°54' W 075°12'0 0.0
2017-Aug-16 11:58N 39°54' W 075°12'0 0.0
2017-Aug-16 11:28N 39°54' W 075°12'0 0.0
2017-Aug-16 10:59N 39°54' W 075°12'0 0.0
2017-Aug-16 10:29N 39°54' W 075°12'0 0.0
2017-Aug-16 09:59N 39°54' W 075°12'0 0.0
2017-Aug-16 09:30N 39°54' W 075°12'0 0.0
2017-Aug-16 09:00N 39°54' W 075°12'0 0.0
2017-Aug-16 08:30N 39°54' W 075°12'0 0.0
2017-Aug-16 08:00N 39°54' W 075°12'0 0.0
2017-Aug-16 07:25N 39°54' W 075°12'0 0.0
2017-Aug-16 06:58N 39°54' W 075°12'0 0.0
2017-Aug-16 06:29N 39°54' W 075°12'0 0.0
2017-Aug-16 05:59N 39°54' W 075°12'0 0.0
2017-Aug-16 05:29N 39°54' W 075°12'0 0.0
2017-Aug-16 05:00N 39°54' W 075°12'0 0.0
2017-Aug-16 04:30N 39°54' W 075°12'0 0.0
2017-Aug-16 04:00N 39°54' W 075°12'0 0.0
2017-Aug-16 03:31N 39°54' W 075°12'0 0.0
2017-Aug-16 02:58N 39°54' W 075°12'0 0.0
2017-Aug-16 02:28N 39°54' W 075°12'0 0.0
2017-Aug-16 01:59N 39°54' W 075°12'0 0.0
2017-Aug-16 01:29N 39°54' W 075°12'0 0.0
2017-Aug-16 00:59N 39°54' W 075°12'0 0.0
2017-Aug-16 00:30N 39°54' W 075°12'0 0.0
2017-Aug-16 00:00N 39°54' W 075°12'0 0.0
2017-Aug-15 23:30N 39°54' W 075°12'0 0.0
2017-Aug-15 22:58N 39°54' W 075°12'0 0.0
2017-Aug-15 22:28N 39°54' W 075°12'0 0.0
2017-Aug-15 21:58N 39°54' W 075°12'0 0.0
2017-Aug-15 21:29N 39°54' W 075°12'0 0.0
2017-Aug-15 20:59N 39°54' W 075°12'0 0.0
2017-Aug-15 20:30N 39°54' W 075°12'0 0.0
2017-Aug-15 20:00N 39°54' W 075°12'0 0.0
2017-Aug-15 19:30N 39°54' W 075°12'0 0.0
2017-Aug-15 19:00N 39°54' W 075°12'0 0.0
2017-Aug-15 18:28N 39°54' W 075°12'0 0.0
2017-Aug-15 17:58N 39°54' W 075°12'0 0.0
2017-Aug-15 17:28N 39°54' W 075°12'0 0.0
2017-Aug-15 16:59N 39°54' W 075°12'0 0.0
2017-Aug-15 16:29N 39°54' W 075°12'0 0.0
2017-Aug-15 15:59N 39°54' W 075°12'0 0.0
2017-Aug-15 15:30N 39°54' W 075°12'0 0.0
2017-Aug-15 15:00N 39°54' W 075°12'0 0.0
2017-Aug-15 14:30N 39°54' W 075°12'0 0.0
2017-Aug-15 13:58N 39°54' W 075°12'0 0.0
2017-Aug-15 13:28N 39°54' W 075°12'0 0.0
2017-Aug-15 12:59N 39°54' W 075°12'0 0.0
2017-Aug-15 12:29N 39°54' W 075°12'0 0.0
2017-Aug-15 11:59N 39°54' W 075°12'0 0.0
2017-Aug-15 11:29N 39°54' W 075°12'0 0.0
2017-Aug-15 11:00N 39°54' W 075°12'0 0.0
2017-Aug-15 10:30N 39°54' W 075°12'0 0.0
2017-Aug-15 10:01N 39°54' W 075°12'0 0.0
2017-Aug-15 09:28N 39°54' W 075°12'0 0.0
2017-Aug-15 08:58N 39°54' W 075°12'0 0.0
2017-Aug-15 08:28N 39°54' W 075°12'0 0.0
2017-Aug-15 07:59N 39°54' W 075°12'0 0.0
2017-Aug-15 07:23N 39°54' W 075°12'0 0.0
2017-Aug-15 07:00N 39°54' W 075°12'0 0.0
2017-Aug-15 06:30N 39°54' W 075°12'0 0.0
2017-Aug-15 06:00N 39°54' W 075°12'0 0.0
2017-Aug-15 05:28N 39°54' W 075°12'0 0.0
2017-Aug-15 05:01N 39°54' W 075°12'0 0.0
2017-Aug-15 04:28N 39°54' W 075°12'0 0.0
2017-Aug-15 03:59N 39°54' W 075°12'0 0.0
2017-Aug-15 03:29N 39°54' W 075°12'0 0.0
2017-Aug-15 02:59N 39°54' W 075°12'0 0.0
2017-Aug-15 02:30N 39°54' W 075°12'0 0.0
2017-Aug-15 02:00N 39°54' W 075°12'0 0.0
2017-Aug-15 01:30N 39°54' W 075°12'0 0.0
2017-Aug-15 01:00N 39°54' W 075°12'0 0.0
2017-Aug-15 00:28N 39°54' W 075°12'0 0.0
2017-Aug-14 23:58N 39°54' W 075°12'0 0.0
2017-Aug-14 23:29N 39°54' W 075°12'0 0.0
2017-Aug-14 22:59N 39°54' W 075°12'0 0.0
2017-Aug-14 22:29N 39°54' W 075°12'0 0.0
2017-Aug-14 21:59N 39°54' W 075°12'0 0.0
2017-Aug-14 21:30N 39°54' W 075°12'0 0.0
2017-Aug-14 21:00N 39°54' W 075°12'0 0.0
2017-Aug-14 20:30N 39°54' W 075°12'0 0.0
2017-Aug-14 19:58N 39°54' W 075°12'0 0.0
2017-Aug-14 19:28N 39°54' W 075°12'0 0.0
2017-Aug-14 18:59N 39°54' W 075°12'0 0.0
2017-Aug-14 18:29N 39°54' W 075°12'0 0.0
2017-Aug-14 17:59N 39°54' W 075°12'0 0.0
2017-Aug-14 17:30N 39°54' W 075°12'0 0.0
2017-Aug-14 17:00N 39°54' W 075°12'0 0.0
2017-Aug-14 16:30N 39°54' W 075°12'0 0.0
2017-Aug-14 16:01N 39°54' W 075°12'0 0.0
2017-Aug-14 15:28N 39°54' W 075°12'0 0.0
2017-Aug-14 14:58N 39°54' W 075°12'0 0.0
2017-Aug-14 14:29N 39°54' W 075°12'0 0.0
2017-Aug-14 13:59N 39°54' W 075°12'0 0.0
2017-Aug-14 13:29N 39°54' W 075°12'0 0.0
2017-Aug-14 13:00N 39°54' W 075°12'0 0.0
2017-Aug-14 12:30N 39°54' W 075°12'0 0.0
2017-Aug-14 12:00N 39°54' W 075°12'0 0.0
2017-Aug-14 11:30N 39°54' W 075°12'0 0.0
2017-Aug-14 10:59N 39°54' W 075°12'0 0.0
2017-Aug-14 10:29N 39°54' W 075°12'0 0.0
2017-Aug-14 09:59N 39°54' W 075°12'0 0.0
2017-Aug-14 09:29N 39°54' W 075°12'0 0.0
2017-Aug-14 09:00N 39°54' W 075°12'0 0.0
2017-Aug-14 08:30N 39°54' W 075°12'0 0.0
2017-Aug-14 08:00N 39°54' W 075°12'0 0.0
2017-Aug-14 07:31N 39°54' W 075°12'0 0.0
2017-Aug-14 06:58N 39°54' W 075°12'0 0.0
2017-Aug-14 06:28N 39°54' W 075°12'0 0.0
2017-Aug-14 05:59N 39°54' W 075°12'0 0.0
2017-Aug-14 05:29N 39°54' W 075°12'0 0.0
2017-Aug-14 04:59N 39°54' W 075°12'0 0.0
2017-Aug-14 04:30N 39°54' W 075°12'0 0.0
2017-Aug-14 04:00N 39°54' W 075°12'0 0.0
2017-Aug-14 03:30N 39°54' W 075°12'0 0.0
2017-Aug-14 03:00N 39°54' W 075°12'0 0.0
2017-Aug-14 02:28N 39°54' W 075°12'0 0.1
2017-Aug-14 02:01N 39°54' W 075°12'3 5.8
2017-Aug-14 01:29N 39°54' W 075°08'0 0.0
2017-Aug-14 00:59N 39°54' W 075°08'0 0.0
2017-Aug-14 00:30N 39°54' W 075°08'0 0.0
2017-Aug-14 00:00N 39°54' W 075°08'0 0.0
2017-Aug-13 23:30N 39°54' W 075°08'0 0.0
2017-Aug-13 23:01N 39°54' W 075°08'0 0.0
2017-Aug-13 22:28N 39°54' W 075°08'0 0.0
2017-Aug-13 21:58N 39°54' W 075°08'2 5.1
2017-Aug-13 21:30N 39°56' W 075°08'4 8.0
2017-Aug-13 21:00N 39°59' W 075°04'0 0.9
2017-Aug-13 20:30N 39°59' W 075°05'4 8.3
2017-Aug-13 20:00N 39°55' W 075°08'2 3.0
2017-Aug-13 19:31N 39°54' W 075°08'4 7.5
2017-Aug-13 19:00N 39°57' W 075°08'3 5.8
2017-Aug-13 18:30N 39°59' W 075°04'0 0.8
2017-Aug-13 18:00N 39°59' W 075°05'3 6.3
2017-Aug-13 17:30N 39°57' W 075°08'1 1.7
2017-Aug-13 16:59N 39°56' W 075°08'0 0.0
2017-Aug-13 16:29N 39°56' W 075°08'0 0.0
2017-Aug-13 15:59N 39°56' W 075°08'0 0.0
2017-Aug-13 15:30N 39°56' W 075°08'0 0.0
2017-Aug-13 15:00N 39°56' W 075°08'0 0.0
2017-Aug-13 14:30N 39°56' W 075°08'0 0.0
2017-Aug-13 13:58N 39°56' W 075°08'0 0.0
2017-Aug-13 13:28N 39°56' W 075°08'0 0.0
2017-Aug-13 12:58N 39°56' W 075°08'0 0.0
2017-Aug-13 12:29N 39°56' W 075°08'0 0.0
2017-Aug-13 11:59N 39°56' W 075°08'0 0.1
2017-Aug-13 11:29N 39°56' W 075°08'0 0.4
2017-Aug-13 11:00N 39°56' W 075°08'0 0.1
2017-Aug-13 10:30N 39°56' W 075°08'0 0.0
2017-Aug-13 10:00N 39°56' W 075°08'0 0.0
2017-Aug-13 09:30N 39°56' W 075°08'0 0.0
2017-Aug-13 08:58N 39°56' W 075°08'0 0.0
2017-Aug-13 08:28N 39°56' W 075°08'0 0.0
2017-Aug-13 07:59N 39°56' W 075°08'0 0.0
2017-Aug-13 07:29N 39°56' W 075°08'0 0.0
2017-Aug-13 06:59N 39°56' W 075°08'0 0.0
2017-Aug-13 06:30N 39°56' W 075°08'0 0.0
2017-Aug-13 06:00N 39°56' W 075°08'0 0.3
2017-Aug-13 05:30N 39°56' W 075°08'0 0.1
2017-Aug-13 04:58N 39°56' W 075°08'0 0.0
2017-Aug-13 04:28N 39°56' W 075°08'0 0.0
2017-Aug-13 03:58N 39°56' W 075°08'0 0.0
2017-Aug-13 03:29N 39°56' W 075°08'0 0.0
2017-Aug-13 02:59N 39°56' W 075°08'0 0.0
2017-Aug-13 02:29N 39°56' W 075°08'0 0.0
2017-Aug-13 02:00N 39°56' W 075°08'0 0.0
2017-Aug-13 01:30N 39°56' W 075°08'0 0.0
2017-Aug-13 01:00N 39°56' W 075°08'0 0.0
2017-Aug-13 00:28N 39°56' W 075°08'0 0.1
2017-Aug-12 23:58N 39°56' W 075°08'0 0.5
2017-Aug-12 23:28N 39°56' W 075°08'0 0.1
2017-Aug-12 22:59N 39°56' W 075°08'0 0.0
2017-Aug-12 22:29N 39°56' W 075°08'0 0.0
2017-Aug-12 21:59N 39°56' W 075°08'0 0.0
2017-Aug-12 21:30N 39°56' W 075°08'0 0.0
2017-Aug-12 21:00N 39°56' W 075°08'0 0.0
2017-Aug-12 20:27N 39°56' W 075°08'0 0.0
2017-Aug-12 20:01N 39°56' W 075°08'0 0.0
2017-Aug-12 19:25N 39°56' W 075°08'0 0.0
2017-Aug-12 18:58N 39°56' W 075°08'0 0.0
2017-Aug-12 18:29N 39°56' W 075°08'0 0.0
2017-Aug-12 17:59N 39°56' W 075°08'0 0.3
2017-Aug-12 17:29N 39°56' W 075°08'0 0.2
2017-Aug-12 17:00N 39°56' W 075°08'0 0.0
2017-Aug-12 16:30N 39°56' W 075°08'0 0.0
2017-Aug-12 16:00N 39°56' W 075°08'0 0.0
2017-Aug-12 15:30N 39°56' W 075°08'0 0.0
2017-Aug-12 14:58N 39°56' W 075°08'0 0.0
2017-Aug-12 14:28N 39°56' W 075°08'0 0.0
2017-Aug-12 13:59N 39°56' W 075°08'0 0.0
2017-Aug-12 13:29N 39°56' W 075°08'0 0.0
2017-Aug-12 12:59N 39°56' W 075°08'0 0.0
2017-Aug-12 12:30N 39°56' W 075°08'0 0.0
2017-Aug-12 12:00N 39°56' W 075°08'0 0.0
2017-Aug-12 11:30N 39°56' W 075°08'0 0.0
2017-Aug-12 10:58N 39°56' W 075°08'0 0.4
2017-Aug-12 10:28N 39°56' W 075°08'0 0.1
2017-Aug-12 09:58N 39°56' W 075°08'0 0.0
2017-Aug-12 09:29N 39°56' W 075°08'0 0.0
2017-Aug-12 08:59N 39°56' W 075°08'0 0.0
2017-Aug-12 08:29N 39°56' W 075°08'0 0.0
2017-Aug-12 08:00N 39°56' W 075°08'0 0.0
2017-Aug-12 07:30N 39°56' W 075°08'0 0.0
2017-Aug-12 07:00N 39°56' W 075°08'0 0.0
2017-Aug-12 06:30N 39°56' W 075°08'0 0.0
2017-Aug-12 05:58N 39°56' W 075°08'0 0.0
2017-Aug-12 05:28N 39°56' W 075°08'0 0.0
2017-Aug-12 04:59N 39°56' W 075°08'0 0.4
2017-Aug-12 04:29N 39°56' W 075°08'0 0.1
2017-Aug-12 03:56N 39°56' W 075°08'0 0.0
2017-Aug-12 03:30N 39°56' W 075°08'0 0.0
2017-Aug-12 03:00N 39°56' W 075°08'0 0.0
2017-Aug-12 02:30N 39°56' W 075°08'0 0.0
2017-Aug-12 02:00N 39°56' W 075°08'0 0.0
2017-Aug-12 01:28N 39°56' W 075°08'0 0.0
2017-Aug-12 00:58N 39°56' W 075°08'0 0.0
2017-Aug-12 00:29N 39°56' W 075°08'0 0.0
2017-Aug-11 23:59N 39°56' W 075°08'0 0.0
2017-Aug-11 23:29N 39°56' W 075°08'0 0.1
2017-Aug-11 23:00N 39°56' W 075°08'0 0.4
2017-Aug-11 22:30N 39°56' W 075°08'0 0.1
2017-Aug-11 21:57N 39°56' W 075°08'0 0.0
2017-Aug-11 21:30N 39°56' W 075°08'  

Dump ship's entire track history